sensor_id;sensor_type;location;lat;lon;timestamp;P1;durP1;ratioP1;P2;durP2;ratioP2
12900;SDS011;6518;50.930;5.344;2023-07-09T00:00:56;6.65;;;5.60;;
12900;SDS011;6518;50.930;5.344;2023-07-09T00:03:22;9.82;;;5.18;;
12900;SDS011;6518;50.930;5.344;2023-07-09T00:05:49;7.72;;;5.50;;
12900;SDS011;6518;50.930;5.344;2023-07-09T00:08:21;9.50;;;5.75;;
12900;SDS011;6518;50.930;5.344;2023-07-09T00:10:54;11.07;;;6.38;;
12900;SDS011;6518;50.930;5.344;2023-07-09T00:13:22;10.55;;;5.95;;
12900;SDS011;6518;50.930;5.344;2023-07-09T00:15:49;9.40;;;5.97;;
12900;SDS011;6518;50.930;5.344;2023-07-09T00:18:17;7.63;;;5.82;;
12900;SDS011;6518;50.930;5.344;2023-07-09T00:20:43;7.68;;;5.78;;
12900;SDS011;6518;50.930;5.344;2023-07-09T00:23:13;7.57;;;5.78;;
12900;SDS011;6518;50.930;5.344;2023-07-09T00:25:41;9.38;;;6.30;;
12900;SDS011;6518;50.930;5.344;2023-07-09T00:28:13;8.43;;;6.03;;
12900;SDS011;6518;50.930;5.344;2023-07-09T00:30:41;12.00;;;6.05;;
12900;SDS011;6518;50.930;5.344;2023-07-09T00:33:09;8.80;;;6.63;;
12900;SDS011;6518;50.930;5.344;2023-07-09T00:35:39;10.25;;;6.53;;
12900;SDS011;6518;50.930;5.344;2023-07-09T00:38:08;12.20;;;6.50;;
12900;SDS011;6518;50.930;5.344;2023-07-09T00:40:44;12.30;;;7.03;;
12900;SDS011;6518;50.930;5.344;2023-07-09T00:43:15;9.93;;;6.90;;
12900;SDS011;6518;50.930;5.344;2023-07-09T00:45:42;18.60;;;8.40;;
12900;SDS011;6518;50.930;5.344;2023-07-09T00:48:11;11.48;;;8.20;;
12900;SDS011;6518;50.930;5.344;2023-07-09T00:50:42;16.55;;;7.60;;
12900;SDS011;6518;50.930;5.344;2023-07-09T00:53:16;13.30;;;7.18;;
12900;SDS011;6518;50.930;5.344;2023-07-09T00:55:48;10.52;;;6.88;;
12900;SDS011;6518;50.930;5.344;2023-07-09T00:58:19;12.52;;;7.30;;
12900;SDS011;6518;50.930;5.344;2023-07-09T01:00:53;11.63;;;7.20;;
12900;SDS011;6518;50.930;5.344;2023-07-09T01:03:25;10.68;;;7.00;;
12900;SDS011;6518;50.930;5.344;2023-07-09T01:05:59;12.20;;;6.95;;
12900;SDS011;6518;50.930;5.344;2023-07-09T01:08:28;9.23;;;6.45;;
12900;SDS011;6518;50.930;5.344;2023-07-09T01:10:58;9.73;;;7.15;;
12900;SDS011;6518;50.930;5.344;2023-07-09T01:13:26;11.15;;;7.00;;
12900;SDS011;6518;50.930;5.344;2023-07-09T01:15:55;8.38;;;7.25;;
12900;SDS011;6518;50.930;5.344;2023-07-09T01:18:22;16.95;;;7.25;;
12900;SDS011;6518;50.930;5.344;2023-07-09T01:20:50;10.55;;;7.00;;
12900;SDS011;6518;50.930;5.344;2023-07-09T01:23:20;8.50;;;6.68;;
12900;SDS011;6518;50.930;5.344;2023-07-09T01:25:49;9.63;;;6.82;;
12900;SDS011;6518;50.930;5.344;2023-07-09T01:28:18;10.07;;;7.55;;
12900;SDS011;6518;50.930;5.344;2023-07-09T01:30:45;15.13;;;7.43;;
12900;SDS011;6518;50.930;5.344;2023-07-09T01:33:19;9.73;;;7.10;;
12900;SDS011;6518;50.930;5.344;2023-07-09T01:35:47;9.77;;;6.80;;
12900;SDS011;6518;50.930;5.344;2023-07-09T01:38:14;9.52;;;6.43;;
12900;SDS011;6518;50.930;5.344;2023-07-09T01:40:42;10.05;;;6.60;;
12900;SDS011;6518;50.930;5.344;2023-07-09T01:43:11;9.70;;;6.80;;
12900;SDS011;6518;50.930;5.344;2023-07-09T01:45:38;9.40;;;6.72;;
12900;SDS011;6518;50.930;5.344;2023-07-09T01:48:05;9.48;;;6.95;;
12900;SDS011;6518;50.930;5.344;2023-07-09T01:50:39;11.02;;;6.80;;
12900;SDS011;6518;50.930;5.344;2023-07-09T01:53:08;10.10;;;6.80;;
12900;SDS011;6518;50.930;5.344;2023-07-09T01:55:36;11.98;;;6.88;;
12900;SDS011;6518;50.930;5.344;2023-07-09T01:58:05;8.02;;;6.38;;
12900;SDS011;6518;50.930;5.344;2023-07-09T02:00:33;11.35;;;6.68;;
12900;SDS011;6518;50.930;5.344;2023-07-09T02:03:01;8.90;;;7.00;;
12900;SDS011;6518;50.930;5.344;2023-07-09T02:05:30;9.90;;;6.78;;
12900;SDS011;6518;50.930;5.344;2023-07-09T02:07:58;9.57;;;7.53;;
12900;SDS011;6518;50.930;5.344;2023-07-09T02:10:25;12.05;;;7.43;;
12900;SDS011;6518;50.930;5.344;2023-07-09T02:12:52;10.05;;;6.47;;
12900;SDS011;6518;50.930;5.344;2023-07-09T02:15:21;10.55;;;7.28;;
12900;SDS011;6518;50.930;5.344;2023-07-09T02:17:47;10.10;;;7.03;;
12900;SDS011;6518;50.930;5.344;2023-07-09T02:20:14;12.05;;;6.97;;
12900;SDS011;6518;50.930;5.344;2023-07-09T02:22:41;12.30;;;6.90;;
12900;SDS011;6518;50.930;5.344;2023-07-09T02:25:09;11.77;;;7.00;;
12900;SDS011;6518;50.930;5.344;2023-07-09T02:27:36;9.35;;;6.35;;
12900;SDS011;6518;50.930;5.344;2023-07-09T02:30:03;12.35;;;7.07;;
12900;SDS011;6518;50.930;5.344;2023-07-09T02:32:33;10.30;;;6.65;;
12900;SDS011;6518;50.930;5.344;2023-07-09T02:35:00;9.80;;;6.32;;
12900;SDS011;6518;50.930;5.344;2023-07-09T02:37:27;11.00;;;6.65;;
12900;SDS011;6518;50.930;5.344;2023-07-09T02:39:54;9.90;;;6.68;;
12900;SDS011;6518;50.930;5.344;2023-07-09T02:42:21;7.85;;;6.80;;
12900;SDS011;6518;50.930;5.344;2023-07-09T02:44:49;11.13;;;7.15;;
12900;SDS011;6518;50.930;5.344;2023-07-09T02:47:16;9.15;;;6.88;;
12900;SDS011;6518;50.930;5.344;2023-07-09T02:49:45;9.32;;;7.15;;
12900;SDS011;6518;50.930;5.344;2023-07-09T02:52:12;10.90;;;7.30;;
12900;SDS011;6518;50.930;5.344;2023-07-09T02:54:39;9.43;;;7.22;;
12900;SDS011;6518;50.930;5.344;2023-07-09T02:57:06;11.65;;;7.30;;
12900;SDS011;6518;50.930;5.344;2023-07-09T02:59:34;9.60;;;7.10;;
12900;SDS011;6518;50.930;5.344;2023-07-09T03:02:01;11.43;;;7.88;;
12900;SDS011;6518;50.930;5.344;2023-07-09T03:04:28;9.32;;;7.05;;
12900;SDS011;6518;50.930;5.344;2023-07-09T03:06:57;10.95;;;7.60;;
12900;SDS011;6518;50.930;5.344;2023-07-09T03:09:25;9.57;;;7.30;;
12900;SDS011;6518;50.930;5.344;2023-07-09T03:11:53;12.80;;;7.40;;
12900;SDS011;6518;50.930;5.344;2023-07-09T03:14:20;11.68;;;6.85;;
12900;SDS011;6518;50.930;5.344;2023-07-09T03:16:47;12.25;;;7.22;;
12900;SDS011;6518;50.930;5.344;2023-07-09T03:19:14;9.43;;;6.72;;
12900;SDS011;6518;50.930;5.344;2023-07-09T03:21:41;11.57;;;7.47;;
12900;SDS011;6518;50.930;5.344;2023-07-09T03:24:09;9.13;;;7.30;;
12900;SDS011;6518;50.930;5.344;2023-07-09T03:26:36;10.43;;;7.10;;
12900;SDS011;6518;50.930;5.344;2023-07-09T03:29:03;10.07;;;6.75;;
12900;SDS011;6518;50.930;5.344;2023-07-09T03:31:30;8.27;;;6.70;;
12900;SDS011;6518;50.930;5.344;2023-07-09T03:34:00;11.70;;;7.70;;
12900;SDS011;6518;50.930;5.344;2023-07-09T03:36:27;10.73;;;7.40;;
12900;SDS011;6518;50.930;5.344;2023-07-09T03:38:54;10.95;;;7.00;;
12900;SDS011;6518;50.930;5.344;2023-07-09T03:41:22;11.18;;;6.82;;
12900;SDS011;6518;50.930;5.344;2023-07-09T03:43:50;10.45;;;7.20;;
12900;SDS011;6518;50.930;5.344;2023-07-09T03:46:18;10.30;;;7.20;;
12900;SDS011;6518;50.930;5.344;2023-07-09T03:48:45;9.80;;;6.93;;
12900;SDS011;6518;50.930;5.344;2023-07-09T03:51:12;13.57;;;6.97;;
12900;SDS011;6518;50.930;5.344;2023-07-09T03:53:39;11.40;;;7.30;;
12900;SDS011;6518;50.930;5.344;2023-07-09T03:56:06;9.43;;;6.95;;
12900;SDS011;6518;50.930;5.344;2023-07-09T03:58:34;10.02;;;6.80;;
12900;SDS011;6518;50.930;5.344;2023-07-09T04:01:02;9.98;;;6.93;;
12900;SDS011;6518;50.930;5.344;2023-07-09T04:03:30;13.85;;;7.05;;
12900;SDS011;6518;50.930;5.344;2023-07-09T04:05:56;12.27;;;8.02;;
12900;SDS011;6518;50.930;5.344;2023-07-09T04:08:23;11.23;;;7.47;;
12900;SDS011;6518;50.930;5.344;2023-07-09T04:10:52;8.65;;;7.20;;
12900;SDS011;6518;50.930;5.344;2023-07-09T04:13:21;11.48;;;7.35;;
12900;SDS011;6518;50.930;5.344;2023-07-09T04:15:49;10.07;;;7.75;;
12900;SDS011;6518;50.930;5.344;2023-07-09T04:18:16;7.65;;;6.70;;
12900;SDS011;6518;50.930;5.344;2023-07-09T04:20:43;10.07;;;7.22;;
12900;SDS011;6518;50.930;5.344;2023-07-09T04:23:13;10.82;;;7.25;;
12900;SDS011;6518;50.930;5.344;2023-07-09T04:25:40;9.68;;;7.60;;
12900;SDS011;6518;50.930;5.344;2023-07-09T04:28:07;11.35;;;7.43;;
12900;SDS011;6518;50.930;5.344;2023-07-09T04:30:34;9.70;;;6.32;;
12900;SDS011;6518;50.930;5.344;2023-07-09T04:33:02;9.18;;;6.43;;
12900;SDS011;6518;50.930;5.344;2023-07-09T04:35:29;8.48;;;7.00;;
12900;SDS011;6518;50.930;5.344;2023-07-09T04:37:56;8.50;;;6.90;;
12900;SDS011;6518;50.930;5.344;2023-07-09T04:40:23;9.25;;;7.35;;
12900;SDS011;6518;50.930;5.344;2023-07-09T04:42:50;9.80;;;7.22;;
12900;SDS011;6518;50.930;5.344;2023-07-09T04:45:17;11.13;;;7.35;;
12900;SDS011;6518;50.930;5.344;2023-07-09T04:47:44;11.05;;;6.93;;
12900;SDS011;6518;50.930;5.344;2023-07-09T04:50:12;12.18;;;7.78;;
12900;SDS011;6518;50.930;5.344;2023-07-09T04:52:39;8.90;;;6.80;;
12900;SDS011;6518;50.930;5.344;2023-07-09T04:55:06;12.38;;;6.88;;
12900;SDS011;6518;50.930;5.344;2023-07-09T04:57:34;12.32;;;7.68;;
12900;SDS011;6518;50.930;5.344;2023-07-09T05:00:01;10.98;;;6.72;;
12900;SDS011;6518;50.930;5.344;2023-07-09T05:02:30;11.13;;;6.50;;
12900;SDS011;6518;50.930;5.344;2023-07-09T05:04:57;9.32;;;6.63;;
12900;SDS011;6518;50.930;5.344;2023-07-09T05:07:26;11.52;;;7.22;;
12900;SDS011;6518;50.930;5.344;2023-07-09T05:09:53;13.68;;;7.32;;
12900;SDS011;6518;50.930;5.344;2023-07-09T05:12:19;10.27;;;6.85;;
12900;SDS011;6518;50.930;5.344;2023-07-09T05:14:46;13.52;;;6.50;;
12900;SDS011;6518;50.930;5.344;2023-07-09T05:17:13;8.95;;;6.50;;
12900;SDS011;6518;50.930;5.344;2023-07-09T05:19:40;9.63;;;6.70;;
12900;SDS011;6518;50.930;5.344;2023-07-09T05:22:07;10.05;;;6.68;;
12900;SDS011;6518;50.930;5.344;2023-07-09T05:24:35;9.85;;;6.43;;
12900;SDS011;6518;50.930;5.344;2023-07-09T05:27:02;8.65;;;6.93;;
12900;SDS011;6518;50.930;5.344;2023-07-09T05:29:29;10.55;;;7.03;;
12900;SDS011;6518;50.930;5.344;2023-07-09T05:31:56;9.80;;;6.50;;
12900;SDS011;6518;50.930;5.344;2023-07-09T05:34:23;9.90;;;7.10;;
12900;SDS011;6518;50.930;5.344;2023-07-09T05:36:50;11.95;;;7.00;;
12900;SDS011;6518;50.930;5.344;2023-07-09T05:39:17;10.23;;;6.72;;
12900;SDS011;6518;50.930;5.344;2023-07-09T05:41:45;10.10;;;7.40;;
12900;SDS011;6518;50.930;5.344;2023-07-09T05:44:12;10.60;;;6.82;;
12900;SDS011;6518;50.930;5.344;2023-07-09T05:46:39;8.50;;;6.57;;
12900;SDS011;6518;50.930;5.344;2023-07-09T05:49:06;10.80;;;6.68;;
12900;SDS011;6518;50.930;5.344;2023-07-09T05:51:33;9.57;;;6.32;;
12900;SDS011;6518;50.930;5.344;2023-07-09T05:54:00;12.60;;;6.25;;
12900;SDS011;6518;50.930;5.344;2023-07-09T05:56:27;9.60;;;7.10;;
12900;SDS011;6518;50.930;5.344;2023-07-09T05:58:55;7.30;;;6.22;;
12900;SDS011;6518;50.930;5.344;2023-07-09T06:01:22;11.73;;;6.47;;
12900;SDS011;6518;50.930;5.344;2023-07-09T06:03:49;11.18;;;6.30;;
12900;SDS011;6518;50.930;5.344;2023-07-09T06:06:16;9.80;;;6.45;;
12900;SDS011;6518;50.930;5.344;2023-07-09T06:08:43;11.93;;;6.25;;
12900;SDS011;6518;50.930;5.344;2023-07-09T06:11:11;8.88;;;5.53;;
12900;SDS011;6518;50.930;5.344;2023-07-09T06:13:38;8.65;;;5.70;;
12900;SDS011;6518;50.930;5.344;2023-07-09T06:16:07;11.25;;;6.10;;
12900;SDS011;6518;50.930;5.344;2023-07-09T06:18:33;10.57;;;6.10;;
12900;SDS011;6518;50.930;5.344;2023-07-09T06:21:01;9.30;;;5.45;;
12900;SDS011;6518;50.930;5.344;2023-07-09T06:23:29;7.50;;;5.60;;
12900;SDS011;6518;50.930;5.344;2023-07-09T06:25:56;10.05;;;5.78;;
12900;SDS011;6518;50.930;5.344;2023-07-09T06:28:24;9.80;;;5.72;;
12900;SDS011;6518;50.930;5.344;2023-07-09T06:30:54;7.82;;;5.65;;
12900;SDS011;6518;50.930;5.344;2023-07-09T06:33:23;6.82;;;5.53;;
12900;SDS011;6518;50.930;5.344;2023-07-09T06:35:51;6.75;;;5.63;;
12900;SDS011;6518;50.930;5.344;2023-07-09T06:38:20;8.77;;;4.82;;
12900;SDS011;6518;50.930;5.344;2023-07-09T06:40:47;8.82;;;4.90;;
12900;SDS011;6518;50.930;5.344;2023-07-09T06:43:14;6.97;;;4.60;;
12900;SDS011;6518;50.930;5.344;2023-07-09T06:45:47;7.70;;;5.07;;
12900;SDS011;6518;50.930;5.344;2023-07-09T06:48:15;7.95;;;4.72;;
12900;SDS011;6518;50.930;5.344;2023-07-09T06:50:43;8.75;;;5.38;;
12900;SDS011;6518;50.930;5.344;2023-07-09T06:53:10;8.80;;;4.40;;
12900;SDS011;6518;50.930;5.344;2023-07-09T06:55:37;9.35;;;4.85;;
12900;SDS011;6518;50.930;5.344;2023-07-09T06:58:04;8.02;;;5.03;;
12900;SDS011;6518;50.930;5.344;2023-07-09T07:00:33;6.85;;;4.78;;
12900;SDS011;6518;50.930;5.344;2023-07-09T07:03:00;5.82;;;4.57;;
12900;SDS011;6518;50.930;5.344;2023-07-09T07:05:27;11.32;;;5.45;;
12900;SDS011;6518;50.930;5.344;2023-07-09T07:07:55;10.20;;;5.00;;
12900;SDS011;6518;50.930;5.344;2023-07-09T07:10:22;6.07;;;4.63;;
12900;SDS011;6518;50.930;5.344;2023-07-09T07:12:49;9.48;;;4.63;;
12900;SDS011;6518;50.930;5.344;2023-07-09T07:15:16;9.85;;;4.82;;
12900;SDS011;6518;50.930;5.344;2023-07-09T07:17:44;8.23;;;4.60;;
12900;SDS011;6518;50.930;5.344;2023-07-09T07:20:12;6.40;;;4.30;;
12900;SDS011;6518;50.930;5.344;2023-07-09T07:22:39;7.15;;;4.68;;
12900;SDS011;6518;50.930;5.344;2023-07-09T07:25:08;5.85;;;4.38;;
12900;SDS011;6518;50.930;5.344;2023-07-09T07:27:36;5.95;;;4.72;;
12900;SDS011;6518;50.930;5.344;2023-07-09T07:30:04;8.55;;;5.18;;
12900;SDS011;6518;50.930;5.344;2023-07-09T07:32:34;9.02;;;4.68;;
12900;SDS011;6518;50.930;5.344;2023-07-09T07:35:01;6.90;;;4.60;;
12900;SDS011;6518;50.930;5.344;2023-07-09T07:37:28;10.45;;;4.55;;
12900;SDS011;6518;50.930;5.344;2023-07-09T07:39:54;7.50;;;4.63;;
12900;SDS011;6518;50.930;5.344;2023-07-09T07:42:23;6.90;;;4.75;;
12900;SDS011;6518;50.930;5.344;2023-07-09T07:44:50;6.43;;;4.57;;
12900;SDS011;6518;50.930;5.344;2023-07-09T07:47:17;7.57;;;4.63;;
12900;SDS011;6518;50.930;5.344;2023-07-09T07:49:44;6.55;;;4.38;;
12900;SDS011;6518;50.930;5.344;2023-07-09T07:52:11;6.75;;;4.43;;
12900;SDS011;6518;50.930;5.344;2023-07-09T07:54:38;10.50;;;4.63;;
12900;SDS011;6518;50.930;5.344;2023-07-09T07:57:05;9.20;;;5.63;;
12900;SDS011;6518;50.930;5.344;2023-07-09T07:59:35;6.43;;;4.70;;
12900;SDS011;6518;50.930;5.344;2023-07-09T08:02:03;9.63;;;6.97;;
12900;SDS011;6518;50.930;5.344;2023-07-09T08:04:31;6.18;;;5.10;;
12900;SDS011;6518;50.930;5.344;2023-07-09T08:06:58;7.28;;;4.55;;
12900;SDS011;6518;50.930;5.344;2023-07-09T08:09:25;7.05;;;4.55;;
12900;SDS011;6518;50.930;5.344;2023-07-09T08:11:52;6.80;;;4.57;;
12900;SDS011;6518;50.930;5.344;2023-07-09T08:14:18;7.57;;;5.68;;
12900;SDS011;6518;50.930;5.344;2023-07-09T08:16:47;12.40;;;7.00;;
12900;SDS011;6518;50.930;5.344;2023-07-09T08:19:18;7.38;;;4.78;;
12900;SDS011;6518;50.930;5.344;2023-07-09T08:21:45;8.50;;;4.97;;
12900;SDS011;6518;50.930;5.344;2023-07-09T08:24:12;6.43;;;5.15;;
12900;SDS011;6518;50.930;5.344;2023-07-09T08:26:40;6.80;;;4.55;;
12900;SDS011;6518;50.930;5.344;2023-07-09T08:29:07;8.93;;;4.63;;
12900;SDS011;6518;50.930;5.344;2023-07-09T08:31:34;5.28;;;4.40;;
12900;SDS011;6518;50.930;5.344;2023-07-09T08:34:02;6.68;;;4.43;;
12900;SDS011;6518;50.930;5.344;2023-07-09T08:36:32;7.25;;;4.50;;
12900;SDS011;6518;50.930;5.344;2023-07-09T08:39:00;9.77;;;4.50;;
12900;SDS011;6518;50.930;5.344;2023-07-09T08:41:37;8.27;;;4.57;;
12900;SDS011;6518;50.930;5.344;2023-07-09T08:44:17;5.78;;;4.32;;
12900;SDS011;6518;50.930;5.344;2023-07-09T08:47:00;10.30;;;4.40;;
12900;SDS011;6518;50.930;5.344;2023-07-09T08:49:37;8.32;;;5.15;;
12900;SDS011;6518;50.930;5.344;2023-07-09T08:52:09;6.10;;;4.28;;
12900;SDS011;6518;50.930;5.344;2023-07-09T08:54:41;8.88;;;4.50;;
12900;SDS011;6518;50.930;5.344;2023-07-09T08:57:14;6.30;;;4.38;;
12900;SDS011;6518;50.930;5.344;2023-07-09T08:59:48;7.32;;;4.43;;
12900;SDS011;6518;50.930;5.344;2023-07-09T09:02:25;5.82;;;4.60;;
12900;SDS011;6518;50.930;5.344;2023-07-09T09:04:58;8.43;;;6.25;;
12900;SDS011;6518;50.930;5.344;2023-07-09T09:07:28;7.65;;;4.38;;
12900;SDS011;6518;50.930;5.344;2023-07-09T09:10:04;6.68;;;4.60;;
12900;SDS011;6518;50.930;5.344;2023-07-09T09:12:35;6.47;;;4.32;;
12900;SDS011;6518;50.930;5.344;2023-07-09T09:15:09;8.70;;;4.65;;
12900;SDS011;6518;50.930;5.344;2023-07-09T09:17:40;7.55;;;4.18;;
12900;SDS011;6518;50.930;5.344;2023-07-09T09:20:09;7.07;;;4.25;;
12900;SDS011;6518;50.930;5.344;2023-07-09T09:22:44;7.35;;;4.45;;
12900;SDS011;6518;50.930;5.344;2023-07-09T09:25:18;11.68;;;4.50;;
12900;SDS011;6518;50.930;5.344;2023-07-09T09:27:50;6.20;;;4.18;;
12900;SDS011;6518;50.930;5.344;2023-07-09T09:30:18;19.98;;;5.75;;
12900;SDS011;6518;50.930;5.344;2023-07-09T09:32:51;6.20;;;4.38;;
12900;SDS011;6518;50.930;5.344;2023-07-09T09:35:25;8.13;;;4.38;;
12900;SDS011;6518;50.930;5.344;2023-07-09T09:37:54;7.20;;;4.35;;
12900;SDS011;6518;50.930;5.344;2023-07-09T09:40:23;8.43;;;4.25;;
12900;SDS011;6518;50.930;5.344;2023-07-09T09:42:52;8.23;;;4.70;;
12900;SDS011;6518;50.930;5.344;2023-07-09T09:45:21;5.97;;;4.30;;
12900;SDS011;6518;50.930;5.344;2023-07-09T09:47:52;6.95;;;4.53;;
12900;SDS011;6518;50.930;5.344;2023-07-09T09:50:25;6.95;;;4.35;;
12900;SDS011;6518;50.930;5.344;2023-07-09T09:52:58;5.82;;;4.50;;
12900;SDS011;6518;50.930;5.344;2023-07-09T09:55:27;8.80;;;4.60;;
12900;SDS011;6518;50.930;5.344;2023-07-09T09:57:56;7.07;;;4.55;;
12900;SDS011;6518;50.930;5.344;2023-07-09T10:00:24;8.32;;;4.28;;
12900;SDS011;6518;50.930;5.344;2023-07-09T10:02:57;5.00;;;3.97;;
12900;SDS011;6518;50.930;5.344;2023-07-09T10:05:28;6.25;;;4.10;;
12900;SDS011;6518;50.930;5.344;2023-07-09T10:08:00;5.45;;;4.32;;
12900;SDS011;6518;50.930;5.344;2023-07-09T10:10:33;5.25;;;4.03;;
12900;SDS011;6518;50.930;5.344;2023-07-09T10:13:02;7.70;;;4.40;;
12900;SDS011;6518;50.930;5.344;2023-07-09T10:15:38;8.20;;;4.40;;
12900;SDS011;6518;50.930;5.344;2023-07-09T10:18:11;7.15;;;5.93;;
12900;SDS011;6518;50.930;5.344;2023-07-09T10:20:55;7.55;;;4.45;;
12900;SDS011;6518;50.930;5.344;2023-07-09T10:23:32;5.47;;;4.20;;
12900;SDS011;6518;50.930;5.344;2023-07-09T10:26:07;6.60;;;4.07;;
12900;SDS011;6518;50.930;5.344;2023-07-09T10:31:33;5.82;;;4.53;;
12900;SDS011;6518;50.930;5.344;2023-07-09T10:34:10;5.75;;;4.30;;
12900;SDS011;6518;50.930;5.344;2023-07-09T10:39:42;6.45;;;4.20;;
12900;SDS011;6518;50.930;5.344;2023-07-09T10:42:14;5.88;;;4.20;;
12900;SDS011;6518;50.930;5.344;2023-07-09T10:44:51;8.13;;;4.00;;
12900;SDS011;6518;50.930;5.344;2023-07-09T10:47:25;5.15;;;4.03;;
12900;SDS011;6518;50.930;5.344;2023-07-09T10:49:56;8.63;;;4.28;;
12900;SDS011;6518;50.930;5.344;2023-07-09T10:52:27;6.15;;;4.38;;
12900;SDS011;6518;50.930;5.344;2023-07-09T10:54:58;7.03;;;4.68;;
12900;SDS011;6518;50.930;5.344;2023-07-09T10:57:32;5.43;;;4.55;;
12900;SDS011;6518;50.930;5.344;2023-07-09T11:00:11;7.97;;;4.70;;
12900;SDS011;6518;50.930;5.344;2023-07-09T11:02:41;8.63;;;4.40;;
12900;SDS011;6518;50.930;5.344;2023-07-09T11:05:09;7.13;;;4.32;;
12900;SDS011;6518;50.930;5.344;2023-07-09T11:07:38;5.10;;;4.05;;
12900;SDS011;6518;50.930;5.344;2023-07-09T11:10:22;7.85;;;4.05;;
12900;SDS011;6518;50.930;5.344;2023-07-09T11:12:54;6.10;;;4.18;;
12900;SDS011;6518;50.930;5.344;2023-07-09T11:15:27;5.35;;;4.05;;
12900;SDS011;6518;50.930;5.344;2023-07-09T11:17:58;8.07;;;3.97;;
12900;SDS011;6518;50.930;5.344;2023-07-09T11:20:26;12.50;;;4.85;;
12900;SDS011;6518;50.930;5.344;2023-07-09T11:23:02;7.20;;;4.30;;
12900;SDS011;6518;50.930;5.344;2023-07-09T11:25:39;9.10;;;3.70;;
12900;SDS011;6518;50.930;5.344;2023-07-09T11:28:08;6.43;;;3.40;;
12900;SDS011;6518;50.930;5.344;2023-07-09T11:30:44;6.15;;;4.38;;
12900;SDS011;6518;50.930;5.344;2023-07-09T11:33:16;6.60;;;4.15;;
12900;SDS011;6518;50.930;5.344;2023-07-09T11:35:45;5.57;;;4.00;;
12900;SDS011;6518;50.930;5.344;2023-07-09T11:38:17;6.25;;;3.80;;
12900;SDS011;6518;50.930;5.344;2023-07-09T11:40:46;4.15;;;3.70;;
12900;SDS011;6518;50.930;5.344;2023-07-09T11:43:25;4.88;;;4.05;;
12900;SDS011;6518;50.930;5.344;2023-07-09T11:45:54;5.72;;;4.22;;
12900;SDS011;6518;50.930;5.344;2023-07-09T11:48:25;7.40;;;4.38;;
12900;SDS011;6518;50.930;5.344;2023-07-09T11:50:54;6.75;;;4.20;;
12900;SDS011;6518;50.930;5.344;2023-07-09T11:53:28;5.18;;;4.03;;
12900;SDS011;6518;50.930;5.344;2023-07-09T11:56:00;6.55;;;4.22;;
12900;SDS011;6518;50.930;5.344;2023-07-09T11:58:27;5.90;;;4.10;;
12900;SDS011;6518;50.930;5.344;2023-07-09T12:00:54;7.10;;;4.13;;
12900;SDS011;6518;50.930;5.344;2023-07-09T12:03:25;6.00;;;4.53;;
12900;SDS011;6518;50.930;5.344;2023-07-09T12:05:55;9.48;;;4.95;;
12900;SDS011;6518;50.930;5.344;2023-07-09T12:08:29;8.75;;;5.50;;
12900;SDS011;6518;50.930;5.344;2023-07-09T12:11:00;9.10;;;6.32;;
12900;SDS011;6518;50.930;5.344;2023-07-09T12:13:27;7.70;;;6.13;;
12900;SDS011;6518;50.930;5.344;2023-07-09T12:15:54;8.90;;;6.10;;
12900;SDS011;6518;50.930;5.344;2023-07-09T12:18:21;10.80;;;6.65;;
12900;SDS011;6518;50.930;5.344;2023-07-09T12:20:48;8.75;;;6.55;;
12900;SDS011;6518;50.930;5.344;2023-07-09T12:23:19;7.80;;;6.55;;
12900;SDS011;6518;50.930;5.344;2023-07-09T12:25:50;10.13;;;7.00;;
12900;SDS011;6518;50.930;5.344;2023-07-09T12:28:18;9.30;;;7.00;;
12900;SDS011;6518;50.930;5.344;2023-07-09T12:30:46;9.60;;;7.30;;
12900;SDS011;6518;50.930;5.344;2023-07-09T12:33:16;8.13;;;6.82;;
12900;SDS011;6518;50.930;5.344;2023-07-09T12:35:43;10.07;;;7.43;;
12900;SDS011;6518;50.930;5.344;2023-07-09T12:38:15;13.20;;;8.48;;
12900;SDS011;6518;50.930;5.344;2023-07-09T12:40:45;12.25;;;8.48;;
12900;SDS011;6518;50.930;5.344;2023-07-09T12:43:16;11.88;;;9.55;;
12900;SDS011;6518;50.930;5.344;2023-07-09T12:45:46;12.60;;;9.18;;
12900;SDS011;6518;50.930;5.344;2023-07-09T12:48:13;11.68;;;9.82;;
12900;SDS011;6518;50.930;5.344;2023-07-09T12:50:40;15.50;;;8.93;;
12900;SDS011;6518;50.930;5.344;2023-07-09T12:53:11;10.60;;;9.05;;
12900;SDS011;6518;50.930;5.344;2023-07-09T12:55:41;10.25;;;8.07;;
12900;SDS011;6518;50.930;5.344;2023-07-09T12:58:10;11.55;;;8.95;;
12900;SDS011;6518;50.930;5.344;2023-07-09T13:00:42;10.32;;;8.10;;
12900;SDS011;6518;50.930;5.344;2023-07-09T13:03:16;11.80;;;7.70;;
12900;SDS011;6518;50.930;5.344;2023-07-09T13:05:52;8.93;;;7.10;;
12900;SDS011;6518;50.930;5.344;2023-07-09T13:08:21;10.75;;;7.07;;
12900;SDS011;6518;50.930;5.344;2023-07-09T13:10:48;8.60;;;7.25;;
12900;SDS011;6518;50.930;5.344;2023-07-09T13:13:18;9.07;;;7.15;;
12900;SDS011;6518;50.930;5.344;2023-07-09T13:15:49;13.68;;;6.88;;
12900;SDS011;6518;50.930;5.344;2023-07-09T13:18:22;12.85;;;6.40;;
12900;SDS011;6518;50.930;5.344;2023-07-09T13:20:50;9.75;;;6.93;;
12900;SDS011;6518;50.930;5.344;2023-07-09T13:23:20;11.15;;;6.72;;
12900;SDS011;6518;50.930;5.344;2023-07-09T13:25:49;10.80;;;6.65;;
12900;SDS011;6518;50.930;5.344;2023-07-09T13:28:18;9.65;;;6.70;;
12900;SDS011;6518;50.930;5.344;2023-07-09T13:30:46;9.70;;;6.28;;
12900;SDS011;6518;50.930;5.344;2023-07-09T13:33:15;11.85;;;7.10;;
12900;SDS011;6518;50.930;5.344;2023-07-09T13:35:43;10.35;;;6.45;;
12900;SDS011;6518;50.930;5.344;2023-07-09T13:38:13;7.88;;;6.40;;
12900;SDS011;6518;50.930;5.344;2023-07-09T13:40:40;8.73;;;6.20;;
12900;SDS011;6518;50.930;5.344;2023-07-09T13:43:11;7.90;;;5.85;;
12900;SDS011;6518;50.930;5.344;2023-07-09T13:45:39;8.73;;;6.45;;
12900;SDS011;6518;50.930;5.344;2023-07-09T13:48:09;7.97;;;5.47;;
12900;SDS011;6518;50.930;5.344;2023-07-09T13:50:42;11.13;;;5.68;;
12900;SDS011;6518;50.930;5.344;2023-07-09T13:53:12;7.57;;;5.78;;
12900;SDS011;6518;50.930;5.344;2023-07-09T13:55:41;7.93;;;5.63;;
12900;SDS011;6518;50.930;5.344;2023-07-09T13:58:08;7.82;;;5.97;;
12900;SDS011;6518;50.930;5.344;2023-07-09T14:00:35;6.38;;;5.60;;
12900;SDS011;6518;50.930;5.344;2023-07-09T14:03:03;6.35;;;5.22;;
12900;SDS011;6518;50.930;5.344;2023-07-09T14:05:35;6.18;;;5.15;;
12900;SDS011;6518;50.930;5.344;2023-07-09T14:08:03;6.57;;;5.22;;
12900;SDS011;6518;50.930;5.344;2023-07-09T14:10:30;6.63;;;4.60;;
12900;SDS011;6518;50.930;5.344;2023-07-09T14:12:57;8.05;;;4.75;;
12900;SDS011;6518;50.930;5.344;2023-07-09T14:15:24;7.45;;;5.38;;
12900;SDS011;6518;50.930;5.344;2023-07-09T14:17:51;5.65;;;4.13;;
12900;SDS011;6518;50.930;5.344;2023-07-09T14:20:18;5.25;;;4.30;;
12900;SDS011;6518;50.930;5.344;2023-07-09T14:22:47;7.15;;;4.53;;
12900;SDS011;6518;50.930;5.344;2023-07-09T14:25:18;6.00;;;4.70;;
12900;SDS011;6518;50.930;5.344;2023-07-09T14:27:47;5.90;;;4.40;;
12900;SDS011;6518;50.930;5.344;2023-07-09T14:30:15;6.97;;;4.50;;
12900;SDS011;6518;50.930;5.344;2023-07-09T14:32:43;6.47;;;4.28;;
12900;SDS011;6518;50.930;5.344;2023-07-09T14:35:13;4.82;;;4.13;;
12900;SDS011;6518;50.930;5.344;2023-07-09T14:37:43;4.72;;;4.15;;
12900;SDS011;6518;50.930;5.344;2023-07-09T14:40:11;5.60;;;4.28;;
12900;SDS011;6518;50.930;5.344;2023-07-09T14:42:40;6.05;;;4.68;;
12900;SDS011;6518;50.930;5.344;2023-07-09T14:45:15;5.95;;;3.72;;
12900;SDS011;6518;50.930;5.344;2023-07-09T14:47:43;5.47;;;4.22;;
12900;SDS011;6518;50.930;5.344;2023-07-09T14:50:10;6.35;;;4.18;;
12900;SDS011;6518;50.930;5.344;2023-07-09T14:52:37;5.28;;;4.00;;
12900;SDS011;6518;50.930;5.344;2023-07-09T14:55:07;6.10;;;4.00;;
12900;SDS011;6518;50.930;5.344;2023-07-09T14:57:40;6.68;;;3.88;;
12900;SDS011;6518;50.930;5.344;2023-07-09T15:00:09;6.88;;;4.80;;
12900;SDS011;6518;50.930;5.344;2023-07-09T15:02:40;3.88;;;3.25;;
12900;SDS011;6518;50.930;5.344;2023-07-09T15:05:11;5.60;;;3.53;;
12900;SDS011;6518;50.930;5.344;2023-07-09T15:07:40;7.50;;;4.10;;
12900;SDS011;6518;50.930;5.344;2023-07-09T15:10:08;7.18;;;4.22;;
12900;SDS011;6518;50.930;5.344;2023-07-09T15:12:38;4.88;;;3.70;;
12900;SDS011;6518;50.930;5.344;2023-07-09T15:15:12;5.20;;;3.63;;